Time;durP1;ratioP1;P1;durP2;ratioP2;P2;SDS_P1;SDS_P2;PMS_P1;PMS_P2;Temp;Humidity;BMP_temperature;BMP_pressure;BME280_temperature;BME280_humidity;BME280_pressure;Samples;Min_cycle;Max_cycle;Signal;HPM_P1;HPM_P2
2022/01/19 00:01:24;;;;;;;11.35;6.35;;;;;;;13.69;23.64;100226.66;1722547;81;21034;-63
2022/01/19 00:03:50;;;;;;;12.10;6.78;;;;;;;13.69;23.69;100218.11;1723384;83;21388;-62
2022/01/19 00:06:17;;;;;;;9.43;6.12;;;;;;;13.68;23.71;100211.12;1719263;82;20943;-67
2022/01/19 00:08:43;;;;;;;10.20;5.85;;;;;;;13.65;23.74;100199.42;1704836;82;20932;-65
2022/01/19 00:11:09;;;;;;;12.40;5.67;;;;;;;13.67;23.74;100193.89;1719257;82;21939;-61
2022/01/19 00:13:36;;;;;;;10.70;6.08;;;;;;;13.67;23.76;100190.72;1719153;82;20873;-63
2022/01/19 00:16:03;;;;;;;9.18;5.30;;;;;;;13.69;23.74;100194.05;1715765;81;21153;-61
2022/01/19 00:18:29;;;;;;;9.98;5.40;;;;;;;13.78;23.70;100201.55;1716319;83;20992;-64
2022/01/19 00:20:56;;;;;;;10.10;5.53;;;;;;;13.81;23.68;100207.39;1720032;82;21030;-65
2022/01/19 00:23:22;;;;;;;8.75;4.83;;;;;;;13.77;23.73;100211.90;1713966;83;20966;-60
2022/01/19 00:25:50;;;;;;;7.80;3.90;;;;;;;13.77;23.78;100224.77;1692359;83;21091;-64
2022/01/19 00:28:16;;;;;;;4.60;3.08;;;;;;;13.78;23.78;100221.60;1713497;83;21240;-64
2022/01/19 00:30:43;;;;;;;6.00;2.65;;;;;;;13.71;23.87;100229.99;1722892;82;20962;-66
2022/01/19 00:33:09;;;;;;;3.67;2.02;;;;;;;13.67;23.94;100235.33;1712847;81;21009;-65
2022/01/19 00:35:36;;;;;;;3.05;2.02;;;;;;;13.71;23.96;100236.18;1713193;82;21990;-62
2022/01/19 00:38:04;;;;;;;4.22;2.52;;;;;;;13.73;23.98;100234.66;1712219;82;20977;-63
2022/01/19 00:40:31;;;;;;;3.95;1.80;;;;;;;13.73;24.02;100226.14;1721287;82;21116;-64
2022/01/19 00:42:57;;;;;;;5.12;1.85;;;;;;;13.79;24.01;100221.41;1716355;82;21469;-63
2022/01/19 00:45:24;;;;;;;3.77;2.33;;;;;;;13.77;24.06;100219.42;1719814;82;20989;-64
2022/01/19 00:47:52;;;;;;;3.77;2.25;;;;;;;13.75;24.11;100213.92;1724192;81;20942;-65
2022/01/19 00:50:22;;;;;;;3.15;2.30;;;;;;;13.79;24.09;100215.26;1714931;82;21115;-66
2022/01/19 00:52:51;;;;;;;4.72;2.80;;;;;;;13.83;24.10;100223.25;1720793;82;21136;-62
2022/01/19 00:55:21;;;;;;;4.40;2.30;;;;;;;13.85;24.12;100215.88;1722774;82;20998;-65
2022/01/19 00:57:47;;;;;;;4.87;2.85;;;;;;;13.85;24.20;100214.05;1699693;82;20948;-62
2022/01/19 01:00:19;;;;;;;6.70;2.80;;;;;;;13.91;24.24;100213.86;1714332;83;20889;-62
2022/01/19 01:02:47;;;;;;;5.05;2.92;;;;;;;13.93;24.31;100217.19;1710467;81;21036;-64
2022/01/19 01:05:13;;;;;;;4.20;2.25;;;;;;;13.93;24.38;100214.02;1694437;83;21109;-65
2022/01/19 01:07:40;;;;;;;3.60;2.25;;;;;;;13.96;24.42;100208.81;1714282;82;20967;-65
2022/01/19 01:10:09;;;;;;;5.37;2.77;;;;;;;14.04;24.38;100212.80;1713727;83;20936;-64
2022/01/19 01:12:50;;;;;;;4.03;2.60;;;;;;;14.11;24.34;100211.92;1713818;83;20925;-65
2022/01/19 01:15:47;;;;;;;4.72;2.15;;;;;;;14.13;24.42;100200.53;1725193;82;20887;-63
2022/01/19 01:20:37;;;;;;;4.30;2.47;;;;;;;14.18;24.52;100191.47;1713807;81;20915;-65
2022/01/19 01:23:05;;;;;;;4.42;3.17;;;;;;;14.21;24.55;100193.80;1709512;82;20915;-61
2022/01/19 01:25:33;;;;;;;5.58;2.58;;;;;;;14.27;24.62;100196.27;1689962;83;20893;-63
2022/01/19 01:28:00;;;;;;;3.33;2.12;;;;;;;14.37;24.63;100198.75;1720666;82;20928;-63
2022/01/19 01:30:27;;;;;;;4.55;2.45;;;;;;;14.49;24.63;100191.99;1721036;83;21218;-67
2022/01/19 01:32:53;;;;;;;4.33;2.25;;;;;;;14.59;24.63;100177.36;1724557;82;21388;-67
2022/01/19 01:35:28;;;;;;;7.08;3.45;;;;;;;14.64;24.68;100173.63;1716180;82;20941;-64
2022/01/19 01:37:56;;;;;;;5.95;2.25;;;;;;;14.77;24.61;100173.86;1714450;83;20986;-63
2022/01/19 01:40:25;;;;;;;3.95;2.50;;;;;;;14.86;24.62;100172.45;1720238;83;20992;-64
2022/01/19 01:42:56;;;;;;;3.55;2.27;;;;;;;14.93;24.65;100180.08;1725632;81;21174;-63
2022/01/19 01:45:28;;;;;;;3.85;2.45;;;;;;;14.96;24.72;100175.20;1723751;83;21067;-63
2022/01/19 01:48:01;;;;;;;5.30;2.22;;;;;;;15.08;24.71;100168.88;1724660;81;21024;-63
2022/01/19 01:55:45;;;;;;;4.42;2.60;;;;;;;15.23;24.85;100146.94;1663787;83;21171;-64
2022/01/19 01:58:12;;;;;;;4.17;2.17;;;;;;;15.25;24.92;100136.36;1718848;82;21014;-64
2022/01/19 02:00:40;;;;;;;5.60;3.12;;;;;;;15.33;24.93;100131.41;1724387;83;20976;-66
2022/01/19 02:03:06;;;;;;;3.65;2.65;;;;;;;15.63;24.69;100131.77;1689407;83;20985;-61
2022/01/19 02:05:37;;;;;;;6.17;2.92;;;;;;;15.72;24.66;100126.61;1713210;83;20917;-64
2022/01/19 02:08:15;;;;;;;4.65;3.05;;;;;;;15.73;24.71;100116.71;1714178;82;21795;-65
2022/01/19 02:11:34;;;;;;;4.90;2.90;;;;;;;15.83;24.68;100119.42;1713557;83;20977;-63
2022/01/19 02:16:22;;;;;;;4.95;2.65;;;;;;;15.96;24.69;100136.18;1713347;82;21009;-62
2022/01/19 02:21:45;;;;;;;5.67;2.37;;;;;;;16.14;24.58;100131.76;1714405;82;21212;-61
2022/01/19 02:24:12;;;;;;;7.70;3.50;;;;;;;16.23;24.52;100121.20;1677936;83;20887;-64
2022/01/19 02:30:05;;;;;;;7.67;3.60;;;;;;;16.16;24.64;100124.34;1716996;82;21525;-64
2022/01/19 02:36:35;;;;;;;7.42;4.08;;;;;;;16.14;24.67;100127.73;1683826;83;20928;-65
2022/01/19 02:43:02;;;;;;;10.13;6.40;;;;;;;16.14;24.89;100127.20;1707128;83;20968;-64
2022/01/19 02:50:40;;;;;;;11.15;6.47;;;;;;;16.30;24.90;100101.45;1719831;82;20964;-64
2022/01/19 02:53:09;;;;;;;10.78;6.37;;;;;;;16.22;25.10;100094.86;1716707;83;32673;-63
2022/01/19 02:55:38;;;;;;;10.13;5.90;;;;;;;16.29;25.16;100093.60;1719667;83;20924;-64
2022/01/19 02:58:04;;;;;;;9.00;5.75;;;;;;;16.34;25.16;100085.29;1675895;83;20908;-61
2022/01/19 03:08:48;;;;;;;12.07;6.08;;;;;;;16.54;25.20;100084.98;1711932;83;20917;-64
2022/01/19 03:11:20;;;;;;;10.03;5.75;;;;;;;16.57;25.23;100079.22;1723504;82;20956;-64
2022/01/19 03:13:49;;;;;;;8.20;5.47;;;;;;;16.62;25.22;100067.89;1698052;83;20979;-67
2022/01/19 03:16:19;;;;;;;9.58;5.78;;;;;;;16.75;25.15;100073.87;1692129;83;21092;-63
2022/01/19 03:18:49;;;;;;;8.53;5.33;;;;;;;16.80;25.13;100066.05;1691842;83;21031;-64
2022/01/19 03:21:17;;;;;;;8.80;5.45;;;;;;;16.83;25.17;100062.47;1691867;83;21144;-63
2022/01/19 03:23:44;;;;;;;8.18;5.22;;;;;;;16.95;25.08;100056.02;1684669;84;21407;-64
2022/01/19 03:26:10;;;;;;;7.45;4.83;;;;;;;16.89;25.19;100057.66;1688285;83;21526;-63
2022/01/19 03:28:39;;;;;;;7.87;4.83;;;;;;;16.91;25.26;100058.28;1706887;82;20955;-63
2022/01/19 03:31:07;;;;;;;7.62;5.08;;;;;;;16.94;25.33;100056.55;1713404;81;20912;-62
2022/01/19 03:33:34;;;;;;;7.62;5.15;;;;;;;17.03;25.32;100058.55;1713060;82;20889;-64
2022/01/19 03:36:00;;;;;;;11.63;5.70;;;;;;;17.09;25.33;100056.42;1714880;82;21047;-64
2022/01/19 03:38:26;;;;;;;8.58;5.37;;;;;;;17.16;25.30;100052.73;1711716;83;21153;-65
2022/01/19 03:40:52;;;;;;;8.15;5.50;;;;;;;17.22;25.30;100049.77;1708465;83;21489;-64
2022/01/19 03:43:19;;;;;;;7.47;4.90;;;;;;;17.19;25.44;100049.66;1726002;82;21071;-67
2022/01/19 03:46:02;;;;;;;7.10;5.53;;;;;;;17.26;25.43;100042.44;1716123;83;21018;-61
2022/01/19 03:48:36;;;;;;;8.43;5.30;;;;;;;17.25;25.57;100040.80;1708264;82;21494;-65
2022/01/19 03:50:56;;;;;;;6.97;5.35;;;;;;;17.36;25.53;100039.91;1701690;83;22117;-64
2022/01/19 03:53:22;;;;;;;7.30;5.37;;;;;;;17.41;25.54;100028.04;1720829;82;20916;-66
2022/01/19 03:55:49;;;;;;;7.62;5.87;;;;;;;17.54;25.46;100019.54;1719456;83;20968;-63
2022/01/19 03:58:15;;;;;;;7.83;5.45;;;;;;;17.53;25.52;100010.31;1719104;83;21423;-66
2022/01/19 04:00:44;;;;;;;8.58;5.70;;;;;;;17.58;25.54;100012.71;1708713;83;20980;-67
2022/01/19 04:03:13;;;;;;;8.13;6.03;;;;;;;17.55;25.64;100006.39;1723361;81;21964;-65
2022/01/19 04:05:55;;;;;;;8.28;6.92;;;;;;;17.49;25.70;100009.04;1718441;81;20919;-62
2022/01/19 04:08:09;;;;;;;11.65;7.37;;;;;;;17.45;25.90;100005.08;1700180;82;21033;-65
2022/01/19 04:10:37;;;;;;;9.70;6.92;;;;;;;17.38;26.03;99996.16;1716876;83;20897;-62
2022/01/19 04:13:24;;;;;;;10.38;7.28;;;;;;;17.40;26.09;99996.78;1714951;83;20948;-65
2022/01/19 04:15:38;;;;;;;13.15;8.38;;;;;;;17.47;26.05;99997.12;1719309;83;21199;-65
2022/01/19 04:18:04;;;;;;;14.63;8.53;;;;;;;17.58;26.01;99999.27;1703455;83;21496;-66
2022/01/19 04:20:40;;;;;;;12.60;8.05;;;;;;;17.52;26.14;99993.30;1688263;83;21064;-62
2022/01/19 04:23:01;;;;;;;15.15;8.83;;;;;;;17.63;26.07;99999.48;1704280;83;21074;-64
2022/01/19 04:25:27;;;;;;;13.20;8.18;;;;;;;17.71;26.06;100004.67;1718023;83;21002;-64
2022/01/19 04:27:54;;;;;;;13.32;9.15;;;;;;;17.74;26.08;100003.44;1702894;84;22025;-66
2022/01/19 04:30:21;;;;;;;12.80;9.03;;;;;;;17.86;25.98;100003.14;1711688;83;21778;-62
2022/01/19 04:33:04;;;;;;;13.22;9.10;;;;;;;17.91;26.01;99997.97;1720842;82;21095;-64
2022/01/19 04:35:24;;;;;;;12.88;9.00;;;;;;;17.91;26.03;99990.44;1705660;83;20961;-61
2022/01/19 05:05:12;;;;;;;11.08;8.73;;;;;;;17.68;26.37;99981.38;1692163;84;21653;-65
2022/01/19 05:07:53;;;;;;;13.32;7.85;;;;;;;17.65;26.39;99979.12;1710325;83;21120;-63
2022/01/19 05:15:39;;;;;;;12.65;8.73;;;;;;;17.66;26.43;99954.69;1707303;83;21053;-64
2022/01/19 05:18:09;;;;;;;12.33;8.80;;;;;;;17.69;26.36;99957.48;1705178;83;20935;-65
2022/01/19 05:20:35;;;;;;;11.60;9.05;;;;;;;17.67;26.36;99955.02;1722593;83;21089;-62
2022/01/19 05:23:02;;;;;;;13.88;8.98;;;;;;;17.70;26.31;99954.58;1720228;82;20964;-64
2022/01/19 05:25:29;;;;;;;12.00;8.48;;;;;;;17.76;26.24;99951.59;1726310;82;21557;-65
2022/01/19 05:28:01;;;;;;;11.53;8.68;;;;;;;17.73;26.26;99953.33;1718993;82;20937;-63
2022/01/19 05:30:29;;;;;;;12.82;8.88;;;;;;;17.71;26.26;99946.83;1729683;81;21008;-65
2022/01/19 05:32:57;;;;;;;11.57;9.35;;;;;;;17.76;26.14;99937.62;1722213;81;21050;-65
2022/01/19 05:35:24;;;;;;;12.93;9.58;;;;;;;17.73;26.10;99950.13;1737596;82;21027;-61
2022/01/19 05:38:11;;;;;;;13.30;9.55;;;;;;;17.64;26.12;99958.61;1718208;82;21557;-67
2022/01/19 05:40:42;;;;;;;14.83;11.03;;;;;;;17.64;26.08;99955.41;1734824;82;20972;-66
2022/01/19 05:43:10;;;;;;;14.20;9.85;;;;;;;17.58;26.08;99962.11;1728739;82;20984;-61
2022/01/19 05:45:37;;;;;;;13.53;10.05;;;;;;;17.61;26.02;99957.67;1732908;82;21234;-65
2022/01/19 05:48:07;;;;;;;15.25;11.53;;;;;;;17.53;26.09;99953.82;1737522;82;21035;-64
2022/01/19 05:50:34;;;;;;;14.38;10.43;;;;;;;17.46;26.09;99955.64;1737080;82;21384;-60
2022/01/19 05:53:03;;;;;;;15.58;10.70;;;;;;;17.34;26.21;99974.22;1728160;82;20941;-64
2022/01/19 05:55:29;;;;;;;16.12;10.32;;;;;;;17.33;26.22;99964.51;1737896;81;20960;-64
2022/01/19 05:57:56;;;;;;;14.50;10.88;;;;;;;17.28;26.30;99978.53;1721158;82;21869;-65
2022/01/19 06:00:24;;;;;;;12.70;10.10;;;;;;;17.24;26.36;99977.80;1729368;82;21103;-64
2022/01/19 06:02:50;;;;;;;14.10;10.30;;;;;;;17.26;26.38;99969.84;1722384;81;21020;-65
2022/01/19 06:05:19;;;;;;;16.57;12.05;;;;;;;17.35;26.34;99969.67;1723775;82;20953;-64
2022/01/19 06:08:09;;;;;;;16.10;11.30;;;;;;;17.26;26.47;99963.13;1721393;82;20974;-65
2022/01/19 06:10:44;;;;;;;16.23;11.57;;;;;;;17.20;26.60;99959.08;1726373;82;21876;-64
2022/01/19 06:13:12;;;;;;;20.10;13.00;;;;;;;17.22;26.64;99952.48;1720344;82;20897;-64
2022/01/19 06:15:39;;;;;;;18.07;12.90;;;;;;;17.13;26.77;99949.63;1731957;81;21545;-71
2022/01/19 06:18:06;;;;;;;20.65;14.07;;;;;;;17.14;26.81;99959.37;1726151;82;20905;-65
2022/01/19 06:20:32;;;;;;;25.82;15.78;;;;;;;17.16;26.77;99961.33;1738273;82;21009;-63
2022/01/19 06:22:59;;;;;;;22.10;16.50;;;;;;;17.19;26.81;99965.48;1735624;80;21465;-61
2022/01/19 06:25:25;;;;;;;24.80;16.95;;;;;;;17.24;26.79;99970.57;1755227;81;20993;-62
2022/01/19 06:27:52;;;;;;;23.25;16.95;;;;;;;17.30;26.77;99970.28;1738172;81;20989;-62
2022/01/19 06:30:18;;;;;;;23.52;16.25;;;;;;;17.35;26.73;99972.36;1729757;81;20978;-63
2022/01/19 06:32:45;;;;;;;27.80;18.05;;;;;;;17.35;26.75;99968.33;1738492;81;20902;-64
2022/01/19 06:35:12;;;;;;;30.30;18.70;;;;;;;17.33;26.82;99970.39;1747256;81;21110;-65
2022/01/19 06:37:43;;;;;;;28.75;19.15;;;;;;;17.37;26.81;99972.47;1738948;81;20969;-64
2022/01/19 06:40:14;;;;;;;28.25;18.60;;;;;;;17.41;26.80;99976.43;1744482;81;21518;-60
2022/01/19 06:42:41;;;;;;;28.40;19.40;;;;;;;17.49;26.69;99971.38;1750993;81;20994;-60
2022/01/19 06:45:10;;;;;;;29.42;19.15;;;;;;;17.44;26.71;99973.85;1743100;81;21134;-64
2022/01/19 06:47:37;;;;;;;28.45;19.60;;;;;;;17.41;26.77;99971.56;1735081;81;21179;-63
2022/01/19 06:50:06;;;;;;;28.00;19.75;;;;;;;17.38;26.70;99971.96;1748099;81;21452;-64
2022/01/19 06:52:36;;;;;;;32.95;20.55;;;;;;;17.36;26.74;99963.27;1744846;81;20867;-61
2022/01/19 06:55:05;;;;;;;27.13;18.35;;;;;;;17.39;26.71;99957.50;1729411;81;21527;-64
2022/01/19 06:57:33;;;;;;;30.75;18.55;;;;;;;17.31;26.78;99954.98;1738488;81;21543;-65
2022/01/19 07:00:18;;;;;;;26.05;16.20;;;;;;;17.32;26.77;99953.94;1744981;81;21754;-63
2022/01/19 07:02:53;;;;;;;24.75;15.75;;;;;;;17.32;26.67;99956.63;1745111;81;20989;-61
2022/01/19 07:05:24;;;;;;;22.55;15.58;;;;;;;17.26;26.70;99951.02;1728494;81;20978;-64
2022/01/19 07:07:56;;;;;;;19.80;14.18;;;;;;;17.46;26.47;99953.79;1737086;81;21518;-65
2022/01/19 07:10:20;;;;;;;22.55;15.45;;;;;;;17.39;26.44;99962.33;1725880;81;21538;-68
2022/01/19 07:12:47;;;;;;;19.12;13.85;;;;;;;17.33;26.44;99960.98;1748330;81;21159;-65
2022/01/19 07:15:14;;;;;;;19.70;12.70;;;;;;;17.23;26.41;99942.02;1744408;81;21695;-65
2022/01/19 07:17:40;;;;;;;15.08;11.80;;;;;;;17.14;26.38;99948.62;1725530;81;20981;-64
2022/01/19 07:20:09;;;;;;;17.57;13.00;;;;;;;17.15;26.35;99942.19;1733574;81;20898;-66
2022/01/19 07:22:44;;;;;;;17.48;12.18;;;;;;;17.20;26.24;99952.36;1729359;82;21087;-67
2022/01/19 07:25:11;;;;;;;18.25;12.35;;;;;;;17.28;26.19;99951.64;1705002;82;21092;-64
2022/01/19 07:27:38;;;;;;;20.75;12.25;;;;;;;17.34;26.03;99957.28;1733925;82;20939;-65
2022/01/19 07:30:06;;;;;;;13.90;11.10;;;;;;;17.39;25.93;99948.09;1699079;82;20898;-63
2022/01/19 07:32:35;;;;;;;13.00;10.18;;;;;;;17.37;25.86;99943.40;1729705;82;20903;-64
2022/01/19 07:35:04;;;;;;;17.25;11.45;;;;;;;17.23;25.82;99950.08;1719027;81;21620;-67
2022/01/19 07:37:32;;;;;;;15.68;10.68;;;;;;;17.06;25.80;99941.23;1676472;83;21197;-67
2022/01/19 07:39:59;;;;;;;19.07;11.70;;;;;;;16.97;25.81;99949.97;1704809;81;21034;-62
2022/01/19 07:42:26;;;;;;;18.30;11.50;;;;;;;16.96;25.85;99952.37;1719273;81;21591;-66
2022/01/19 07:45:06;;;;;;;14.00;10.68;;;;;;;16.90;25.84;99954.50;1710930;81;20886;-64
2022/01/19 07:47:46;;;;;;;16.15;11.33;;;;;;;16.95;25.80;99950.69;1721881;81;21151;-65
2022/01/19 07:50:18;;;;;;;17.70;11.97;;;;;;;16.88;25.83;99948.50;1709614;81;21835;-67
2022/01/19 07:52:52;;;;;;;15.60;11.05;;;;;;;16.85;25.77;99943.52;1713364;81;21551;-66
2022/01/19 07:55:37;;;;;;;24.05;12.95;;;;;;;16.85;25.75;99929.25;1713392;81;22498;-64
2022/01/19 07:58:05;;;;;;;22.75;12.43;;;;;;;16.77;25.75;99915.47;1736372;82;20923;-62
2022/01/19 08:00:35;;;;;;;16.87;11.22;;;;;;;16.73;25.78;99894.59;1702909;81;20943;-62
2022/01/19 08:03:05;;;;;;;13.58;10.10;;;;;;;16.79;25.61;99909.37;1677427;83;21148;-64
2022/01/19 08:05:45;;;;;;;14.30;10.70;;;;;;;16.76;25.60;99890.16;1703796;81;20896;-65
2022/01/19 08:08:11;;;;;;;15.38;11.18;;;;;;;16.67;25.64;99898.89;1711337;81;20976;-63
2022/01/19 08:10:41;;;;;;;16.67;11.48;;;;;;;16.61;25.74;99892.97;1678280;83;21120;-61
2022/01/19 08:13:06;;;;;;;16.97;11.38;;;;;;;16.65;25.71;99895.59;1711250;81;21433;-66
2022/01/19 08:15:34;;;;;;;19.23;12.58;;;;;;;16.69;25.74;99890.11;1712355;81;21852;-64
2022/01/19 08:18:03;;;;;;;14.95;11.50;;;;;;;16.81;25.74;99892.56;1689027;83;21019;-66
2022/01/19 08:20:30;;;;;;;16.65;11.30;;;;;;;16.87;25.71;99892.28;1733007;81;21023;-61
2022/01/19 08:22:57;;;;;;;12.85;10.60;;;;;;;16.91;25.59;99883.61;1717063;81;21092;-61
2022/01/19 08:25:32;;;;;;;15.00;10.33;;;;;;;16.96;25.46;99887.87;1711645;81;20998;-70
2022/01/19 08:27:59;;;;;;;13.60;10.13;;;;;;;17.01;25.51;99890.78;1704607;81;21611;-60
2022/01/19 08:30:30;;;;;;;15.55;10.78;;;;;;;17.17;25.40;99889.58;1724888;81;21601;-64
2022/01/19 08:32:57;;;;;;;14.85;10.98;;;;;;;17.35;25.23;99890.34;1712556;81;20998;-65
2022/01/19 08:35:25;;;;;;;16.80;12.33;;;;;;;17.53;25.06;99889.27;1705826;81;20923;-65
2022/01/19 08:38:11;;;;;;;16.40;11.25;;;;;;;17.61;24.94;99884.53;1700303;81;21033;-65
2022/01/19 08:40:42;;;;;;;16.73;11.80;;;;;;;17.49;24.93;99884.80;1704801;81;21185;-64
2022/01/19 08:43:10;;;;;;;19.52;11.90;;;;;;;17.33;24.92;99883.00;1710257;81;21041;-64
2022/01/19 08:45:37;;;;;;;15.90;10.82;;;;;;;17.51;24.78;99881.89;1726494;81;20942;-65
2022/01/19 08:48:05;;;;;;;15.60;11.18;;;;;;;17.57;24.81;99881.12;1704025;81;20931;-67
2022/01/19 08:50:39;;;;;;;16.52;12.15;;;;;;;17.61;24.82;99873.77;1682747;81;20939;-65
2022/01/19 08:53:09;;;;;;;15.98;11.25;;;;;;;17.65;24.67;99856.70;1703360;81;20863;-65
2022/01/19 08:55:40;;;;;;;16.87;11.75;;;;;;;17.65;24.64;99868.81;1704178;81;20986;-65
2022/01/19 08:58:07;;;;;;;18.15;12.15;;;;;;;17.66;24.67;99874.48;1710279;81;21508;-63
2022/01/19 09:00:33;;;;;;;17.82;12.33;;;;;;;17.56;24.59;99876.76;1707770;81;21048;-65
2022/01/19 09:03:00;;;;;;;15.35;12.07;;;;;;;17.56;24.63;99886.17;1710157;81;21638;-63
2022/01/19 09:05:26;;;;;;;17.27;12.75;;;;;;;17.59;24.62;99885.77;1708076;81;21293;-63
2022/01/19 09:07:53;;;;;;;15.40;12.03;;;;;;;17.71;24.77;99885.45;1715054;81;21094;-65
2022/01/19 09:10:31;;;;;;;17.73;13.28;;;;;;;17.77;24.64;99888.67;1596231;81;984253;-64
2022/01/19 09:12:57;;;;;;;21.05;13.10;;;;;;;17.77;24.64;99888.67;1716604;81;21012;-64
2022/01/19 09:15:24;;;;;;;16.57;11.85;;;;;;;17.91;24.15;99872.81;1724217;81;21173;-63
2022/01/19 09:17:52;;;;;;;16.25;11.38;;;;;;;17.87;24.16;99868.39;1707369;81;21002;-60
2022/01/19 09:20:18;;;;;;;17.02;11.05;;;;;;;17.80;24.21;99866.73;1712931;81;21049;-64
2022/01/19 09:22:45;;;;;;;21.45;13.75;;;;;;;17.82;24.27;99855.24;1713914;81;21010;-65
2022/01/19 09:25:12;;;;;;;19.60;13.62;;;;;;;17.78;24.23;99852.12;1711977;81;21038;-61
2022/01/19 09:27:39;;;;;;;17.85;12.93;;;;;;;17.72;24.29;99844.07;1712615;81;21155;-61
2022/01/19 09:30:14;;;;;;;19.57;12.40;;;;;;;17.78;24.28;99842.70;1717268;81;20930;-65
2022/01/19 09:32:45;;;;;;;17.98;13.03;;;;;;;17.80;24.30;99836.62;1712227;81;20973;-61
2022/01/19 09:35:22;;;;;;;22.45;14.07;;;;;;;17.88;24.21;99835.03;1709963;81;20938;-59
2022/01/19 09:37:40;;;;;;;22.13;15.00;;;;;;;17.99;24.12;99820.66;1701230;81;20966;-60
2022/01/19 09:40:09;;;;;;;22.55;14.53;;;;;;;17.94;24.14;99814.54;1728563;82;21211;-62
2022/01/19 09:42:35;;;;;;;22.65;14.60;;;;;;;17.95;24.11;99816.20;1703294;82;20939;-61
2022/01/19 09:45:03;;;;;;;18.17;13.13;;;;;;;17.94;24.09;99817.23;1741532;82;20994;-60
2022/01/19 09:47:29;;;;;;;20.70;14.87;;;;;;;17.86;24.13;99815.59;1724239;81;21489;-64
2022/01/19 09:49:55;;;;;;;21.12;14.10;;;;;;;17.86;24.15;99809.38;1716667;83;21049;-62
2022/01/19 09:52:22;;;;;;;25.43;14.98;;;;;;;17.94;24.09;99803.77;1709213;81;22347;-64
2022/01/19 09:54:48;;;;;;;17.95;13.95;;;;;;;17.94;24.14;99813.73;1738911;82;21082;-64
2022/01/19 09:57:15;;;;;;;18.73;14.18;;;;;;;17.97;24.09;99815.47;1721582;81;21593;-64
2022/01/19 09:59:41;;;;;;;20.68;12.90;;;;;;;18.11;24.04;99817.11;1682951;84;21512;-62
2022/01/19 10:02:10;;;;;;;22.02;14.58;;;;;;;18.44;23.74;99813.80;1722825;81;20909;-62
2022/01/19 10:04:42;;;;;;;16.62;12.60;;;;;;;18.46;23.78;99803.63;1693169;83;21160;-64
2022/01/19 10:07:19;;;;;;;17.67;12.65;;;;;;;18.33;23.51;99804.19;1724597;81;20877;-62
2022/01/19 10:10:01;;;;;;;19.15;13.72;;;;;;;18.16;23.48;99806.53;1687694;82;20981;-65
2022/01/19 10:18:28;;;;;;;16.62;12.65;;;;;;;18.21;23.45;99794.61;1742870;82;21171;-65
2022/01/19 10:21:13;;;;;;;17.12;10.78;;;;;;;18.19;23.24;99781.88;1715180;83;20889;-61
2022/01/19 10:23:44;;;;;;;15.20;11.90;;;;;;;18.12;23.19;99775.67;1687289;84;21554;-61
2022/01/19 10:26:13;;;;;;;18.05;11.60;;;;;;;17.88;23.24;99773.14;1712821;83;20904;-63
2022/01/19 10:29:08;;;;;;;17.50;11.45;;;;;;;17.65;23.45;99765.23;1725006;83;20945;-64
2022/01/19 10:31:38;;;;;;;13.93;10.35;;;;;;;17.50;23.50;99770.78;1695143;83;21138;-65
2022/01/19 10:34:20;;;;;;;14.53;10.50;;;;;;;17.54;23.57;99782.00;1717367;83;21532;-63
2022/01/19 10:36:53;;;;;;;14.50;10.53;;;;;;;17.57;23.54;99765.45;1721650;83;20994;-64
2022/01/19 10:39:21;;;;;;;14.45;11.43;;;;;;;17.68;23.41;99756.20;1684506;84;21352;-65
2022/01/19 10:42:06;;;;;;;18.05;11.90;;;;;;;17.81;23.34;99756.70;1720980;83;20877;-62
2022/01/19 10:44:43;;;;;;;16.25;12.07;;;;;;;17.81;23.20;99743.25;1703643;83;20936;-65
2022/01/19 10:47:12;;;;;;;16.00;12.30;;;;;;;17.87;23.23;99749.97;1692634;83;21006;-62
2022/01/19 10:49:55;;;;;;;15.05;12.05;;;;;;;17.96;23.22;99758.66;1719018;83;21458;-66
2022/01/19 10:52:37;;;;;;;16.12;12.63;;;;;;;18.02;23.17;99747.02;1712465;83;21001;-66
2022/01/19 10:55:10;;;;;;;16.50;11.70;;;;;;;18.05;23.04;99738.53;1681681;84;21036;-66
2022/01/19 10:57:40;;;;;;;17.62;13.05;;;;;;;18.11;22.89;99728.27;1720726;83;21938;-61
2022/01/19 11:00:29;;;;;;;20.55;13.28;;;;;;;18.12;22.95;99712.95;1712847;83;20948;-60
2022/01/19 11:03:25;;;;;;;16.57;12.28;;;;;;;17.97;22.96;99708.32;1685592;83;20970;-65
2022/01/19 11:05:54;;;;;;;18.77;12.23;;;;;;;17.90;23.04;99704.31;1716794;81;21489;-64
2022/01/19 11:08:22;;;;;;;16.20;12.33;;;;;;;17.75;23.42;99690.30;1724662;81;21045;-66
2022/01/19 11:10:52;;;;;;;15.60;11.33;;;;;;;17.68;23.44;99681.39;1693603;83;22007;-63
2022/01/19 11:13:38;;;;;;;17.48;11.78;;;;;;;17.58;23.51;99667.05;1724771;83;20948;-64
2022/01/19 11:15:56;;;;;;;16.67;11.08;;;;;;;17.63;23.61;99667.75;1721500;81;21511;-65
2022/01/19 11:18:25;;;;;;;13.55;10.13;;;;;;;17.70;23.62;99666.69;1736243;82;20994;-65
2022/01/19 11:20:51;;;;;;;14.23;11.10;;;;;;;17.61;23.68;99657.21;1719606;82;21049;-63
2022/01/19 11:23:52;;;;;;;17.07;11.38;;;;;;;17.56;23.77;99660.22;1744813;82;21145;-65
2022/01/19 11:26:22;;;;;;;24.77;15.00;;;;;;;17.50;23.81;99661.02;1724457;81;20943;-66
2022/01/19 11:28:49;;;;;;;20.45;13.98;;;;;;;17.45;23.93;99659.48;1725265;81;20976;-63
2022/01/19 11:31:27;;;;;;;19.02;12.73;;;;;;;17.19;24.20;99662.53;1687606;83;21080;-62
2022/01/19 11:33:57;;;;;;;18.65;12.35;;;;;;;17.08;24.45;99663.15;1716533;83;20925;-63
2022/01/19 11:36:34;;;;;;;20.02;13.43;;;;;;;17.14;24.43;99661.50;1710564;83;21139;-62
2022/01/19 11:39:20;;;;;;;16.23;11.55;;;;;;;17.09;24.50;99666.67;1693473;84;21074;-63
2022/01/19 11:41:55;;;;;;;14.70;9.95;;;;;;;16.98;24.64;99651.99;1719979;81;21446;-64
2022/01/19 11:44:33;;;;;;;12.28;10.25;;;;;;;17.00;24.78;99648.57;1685370;84;21552;-62
2022/01/19 11:47:16;;;;;;;14.53;9.30;;;;;;;17.01;24.80;99648.89;1715877;81;20880;-62
2022/01/19 11:49:50;;;;;;;15.23;10.98;;;;;;;17.25;24.76;99646.92;1716083;83;21799;-61
2022/01/19 11:52:19;;;;;;;11.25;9.13;;;;;;;17.28;24.80;99648.36;1725175;81;20899;-64
2022/01/19 11:54:47;;;;;;;14.98;10.23;;;;;;;17.32;24.82;99646.89;1717389;81;20916;-64
2022/01/19 11:57:28;;;;;;;14.63;10.68;;;;;;;17.37;24.87;99638.19;1712249;83;20995;-62
2022/01/19 12:00:21;;;;;;;16.50;11.12;;;;;;;17.50;24.86;99646.23;1682188;84;20969;-64
2022/01/19 12:02:51;;;;;;;15.38;9.85;;;;;;;17.74;24.75;99638.34;1714145;81;21166;-63
2022/01/19 12:05:24;;;;;;;15.35;10.55;;;;;;;17.72;24.76;99638.25;1714609;81;21054;-60
2022/01/19 12:07:59;;;;;;;11.85;9.25;;;;;;;17.86;24.73;99632.59;1731336;82;21574;-65
2022/01/19 12:10:39;;;;;;;21.23;13.13;;;;;;;18.03;24.65;99624.03;1705040;83;20893;-64
2022/01/19 12:13:55;;;;;;;17.45;11.95;;;;;;;18.06;24.63;99633.86;1743692;82;20962;-74
2022/01/19 12:19:03;;;;;;;13.32;11.55;;;;;;;18.15;24.66;99629.87;1712480;81;21008;-64
2022/01/19 12:21:35;;;;;;;13.03;10.48;;;;;;;18.44;25.58;99624.41;1711211;83;21481;-62
2022/01/19 12:24:26;;;;;;;15.20;11.75;;;;;;;18.53;25.20;99619.11;1721612;83;21005;-65
2022/01/19 12:27:06;;;;;;;15.18;11.80;;;;;;;18.43;24.90;99610.11;1740878;82;21077;-65
2022/01/19 12:29:37;;;;;;;17.35;11.33;;;;;;;18.54;24.86;99605.93;1713670;82;21181;-60
2022/01/19 12:32:21;;;;;;;18.87;11.78;;;;;;;18.61;24.78;99609.42;1732014;80;20924;-62
2022/01/19 12:34:51;;;;;;;17.57;12.10;;;;;;;18.49;24.83;99606.59;1713883;81;21050;-64
2022/01/19 12:37:47;;;;;;;14.25;10.03;;;;;;;18.34;24.99;99603.88;1691753;83;20978;-62
2022/01/19 12:40:29;;;;;;;14.33;11.57;;;;;;;18.32;25.16;99595.19;1712996;81;21059;-64
2022/01/19 12:42:59;;;;;;;17.82;11.50;;;;;;;18.27;25.12;99596.36;1720985;81;21477;-64
2022/01/19 12:45:29;;;;;;;19.40;11.35;;;;;;;18.33;25.16;99592.78;1699980;82;20987;-63
2022/01/19 12:47:59;;;;;;;14.87;10.68;;;;;;;18.65;27.14;99593.11;1695280;82;20947;-59
2022/01/19 12:50:36;;;;;;;16.77;9.95;;;;;;;18.73;25.87;99596.05;1710744;81;20947;-61
2022/01/19 12:53:10;;;;;;;15.45;10.72;;;;;;;18.79;25.51;99599.22;1707895;81;21500;-60
2022/01/19 12:55:39;;;;;;;15.38;9.90;;;;;;;18.82;25.19;99592.84;1709189;81;21196;-63